Time;durP1;ratioP1;P1;durP2;ratioP2;P2;SDS_P1;SDS_P2;PMS_P1;PMS_P2;Temp;Humidity;BMP_temperature;BMP_pressure;BME280_temperature;BME280_humidity;BME280_pressure;Samples;Min_cycle;Max_cycle;Signal;HPM_P1;HPM_P2
2022/12/05 00:00:45;;;;;;;88.00;42.50;;;5.00;99.90;;;;;;5033193;28;20056;-70
2022/12/05 00:03:11;;;;;;;97.88;42.70;;;5.10;99.90;;;;;;5033926;28;20063;-70
2022/12/05 00:05:41;;;;;;;83.55;39.97;;;5.10;99.90;;;;;;5025001;28;20072;-70
2022/12/05 00:08:06;;;;;;;86.32;41.80;;;5.00;99.90;;;;;;5033913;28;20025;-70
2022/12/05 00:10:35;;;;;;;82.00;40.20;;;5.10;99.90;;;;;;5032685;28;20025;-68
2022/12/05 00:13:01;;;;;;;82.38;40.80;;;5.10;99.90;;;;;;5035162;28;20017;-69
2022/12/05 00:15:27;;;;;;;82.70;40.80;;;5.10;99.90;;;;;;5025627;28;20030;-69
2022/12/05 00:17:52;;;;;;;92.35;42.20;;;5.10;99.90;;;;;;5024448;28;20047;-69
2022/12/05 00:20:19;;;;;;;91.45;41.95;;;5.20;99.90;;;;;;5033854;28;20403;-69
2022/12/05 00:22:45;;;;;;;91.90;41.85;;;5.20;99.90;;;;;;5035210;28;20033;-69
2022/12/05 00:25:11;;;;;;;83.88;39.40;;;5.20;99.90;;;;;;5033080;28;20413;-69
2022/12/05 00:27:36;;;;;;;81.80;40.33;;;5.20;99.90;;;;;;5050343;28;20495;-69
2022/12/05 00:30:04;;;;;;;80.82;38.15;;;5.20;99.90;;;;;;5032501;28;20032;-69
2022/12/05 00:32:31;;;;;;;83.93;41.15;;;5.20;99.90;;;;;;5046386;28;20026;-72
2022/12/05 00:34:56;;;;;;;85.78;41.08;;;5.30;99.90;;;;;;5033938;28;20025;-69
2022/12/05 00:37:22;;;;;;;85.18;40.63;;;5.20;99.90;;;;;;5034299;28;20389;-69
2022/12/05 00:39:48;;;;;;;95.47;42.47;;;5.20;99.90;;;;;;5032072;28;20113;-69
2022/12/05 00:42:14;;;;;;;96.32;44.92;;;5.30;99.90;;;;;;5030951;28;20120;-69
2022/12/05 00:44:40;;;;;;;87.53;42.05;;;5.20;99.90;;;;;;5031894;28;20488;-69
2022/12/05 00:47:05;;;;;;;80.03;40.17;;;5.30;99.90;;;;;;5031519;28;20132;-69
2022/12/05 00:49:31;;;;;;;86.80;41.65;;;5.30;99.90;;;;;;5033927;28;20477;-68
2022/12/05 00:51:58;;;;;;;91.82;42.00;;;5.30;99.90;;;;;;5033552;28;20034;-69
2022/12/05 00:54:23;;;;;;;84.03;40.20;;;5.30;99.90;;;;;;5034169;28;20029;-69
2022/12/05 00:56:51;;;;;;;87.85;41.08;;;5.30;99.90;;;;;;5030643;28;20036;-69
2022/12/05 00:59:18;;;;;;;88.65;42.08;;;5.30;99.90;;;;;;5033696;28;20591;-69
2022/12/05 01:01:46;;;;;;;81.78;41.90;;;5.30;99.90;;;;;;5032531;28;20040;-69
2022/12/05 01:04:16;;;;;;;80.88;40.45;;;5.30;99.90;;;;;;5048450;28;20041;-68
2022/12/05 01:06:42;;;;;;;81.88;39.40;;;5.30;99.90;;;;;;5033786;28;20045;-68
2022/12/05 01:09:11;;;;;;;87.53;37.95;;;5.20;99.90;;;;;;5033121;28;20503;-68
2022/12/05 01:11:37;;;;;;;85.78;42.33;;;5.30;99.90;;;;;;5033218;28;20128;-68
2022/12/05 01:14:04;;;;;;;85.57;40.70;;;5.30;99.90;;;;;;5032332;28;20168;-68
2022/12/05 01:16:33;;;;;;;82.85;40.70;;;5.30;99.90;;;;;;5031693;28;20032;-68
2022/12/05 01:19:01;;;;;;;81.20;40.00;;;5.30;99.90;;;;;;5034058;28;20380;-68
2022/12/05 01:21:27;;;;;;;79.82;39.92;;;5.30;99.90;;;;;;5031958;28;20025;-68
2022/12/05 01:23:54;;;;;;;86.70;41.78;;;5.30;99.90;;;;;;5026088;28;20465;-68
2022/12/05 01:26:21;;;;;;;76.28;38.20;;;5.30;99.90;;;;;;5022271;28;20044;-68
2022/12/05 01:28:47;;;;;;;80.28;38.97;;;5.30;99.90;;;;;;5033636;28;20031;-68
2022/12/05 01:31:26;;;;;;;91.60;43.08;;;5.30;99.90;;;;;;5033235;28;20380;-68
2022/12/05 01:33:53;;;;;;;85.18;38.60;;;5.30;99.90;;;;;;5025169;28;20063;-68
2022/12/05 01:36:20;;;;;;;82.20;41.60;;;5.30;99.90;;;;;;5032800;28;20109;-68
2022/12/05 01:38:45;;;;;;;80.38;39.58;;;5.30;99.90;;;;;;5033463;28;20384;-68
2022/12/05 01:41:20;;;;;;;87.72;41.60;;;5.30;99.90;;;;;;5032388;28;20022;-68
2022/12/05 01:44:11;;;;;;;86.68;40.65;;;5.30;99.90;;;;;;5032428;28;20037;-68
2022/12/05 01:46:42;;;;;;;93.57;42.22;;;5.30;99.90;;;;;;5014759;28;20555;-68
2022/12/05 01:49:15;;;;;;;93.18;41.58;;;5.30;99.90;;;;;;5032677;28;20387;-68
2022/12/05 01:51:47;;;;;;;88.72;42.13;;;5.30;99.90;;;;;;5032660;28;20029;-68
2022/12/05 01:54:14;;;;;;;84.03;38.70;;;5.30;99.90;;;;;;5031747;28;20452;-68
2022/12/05 01:56:43;;;;;;;89.28;41.45;;;5.30;99.90;;;;;;5020414;28;20469;-68
2022/12/05 01:59:10;;;;;;;87.35;41.72;;;5.30;99.90;;;;;;5032438;28;20038;-68
2022/12/05 02:01:37;;;;;;;87.03;41.40;;;5.30;99.90;;;;;;5029906;28;20507;-68
2022/12/05 02:04:04;;;;;;;94.82;42.45;;;5.20;99.90;;;;;;5032561;28;20071;-68
2022/12/05 02:06:31;;;;;;;101.13;42.13;;;5.20;99.90;;;;;;5032231;28;20045;-68
2022/12/05 02:08:57;;;;;;;89.68;40.20;;;5.10;99.90;;;;;;5032372;28;20056;-67
2022/12/05 02:11:25;;;;;;;83.00;39.13;;;5.10;99.90;;;;;;5031248;28;20064;-67
2022/12/05 02:13:57;;;;;;;86.57;38.67;;;5.20;99.90;;;;;;5027131;28;20030;-67
2022/12/05 02:16:55;;;;;;;84.97;38.75;;;5.10;99.90;;;;;;5032681;28;20025;-68
2022/12/05 02:19:36;;;;;;;88.00;41.40;;;5.10;99.90;;;;;;5019121;28;20397;-68
2022/12/05 02:22:41;;;;;;;76.75;36.72;;;5.10;99.90;;;;;;5027545;28;20017;-68
2022/12/05 02:25:41;;;;;;;85.93;39.47;;;5.10;99.90;;;;;;5031958;28;20492;-68
2022/12/05 02:28:35;;;;;;;81.88;39.13;;;5.10;99.90;;;;;;5031513;28;20440;-68
2022/12/05 02:31:17;;;;;;;89.50;39.10;;;5.10;99.90;;;;;;5032577;28;20539;-68
2022/12/05 02:34:11;;;;;;;80.60;39.15;;;5.10;99.90;;;;;;5029522;28;20116;-68
2022/12/05 02:36:49;;;;;;;82.87;36.07;;;5.10;99.90;;;;;;4972666;28;20505;-69
2022/12/05 02:39:26;;;;;;;76.13;38.70;;;5.10;99.90;;;;;;5018542;28;20763;-69
2022/12/05 02:42:01;;;;;;;79.53;37.20;;;5.10;99.90;;;;;;5031433;28;20506;-69
2022/12/05 02:44:41;;;;;;;96.43;41.05;;;5.10;99.90;;;;;;5029474;28;20046;-68
2022/12/05 02:47:11;;;;;;;83.00;37.75;;;5.10;99.90;;;;;;5030835;28;20590;-68
2022/12/05 02:49:39;;;;;;;86.32;38.42;;;5.10;99.90;;;;;;5032628;28;20029;-69
2022/12/05 02:52:11;;;;;;;71.95;35.25;;;5.10;99.90;;;;;;5019193;28;20040;-69
2022/12/05 02:54:39;;;;;;;84.65;39.92;;;5.10;99.90;;;;;;5030880;28;20484;-68
2022/12/05 02:57:08;;;;;;;91.97;36.92;;;5.10;99.90;;;;;;5030348;28;20045;-68
2022/12/05 02:59:33;;;;;;;78.32;37.63;;;5.10;99.90;;;;;;5026808;28;20057;-69
2022/12/05 03:02:00;;;;;;;84.57;41.10;;;5.10;99.90;;;;;;5020092;28;20038;-68
2022/12/05 03:04:28;;;;;;;83.43;38.65;;;5.10;99.90;;;;;;5014065;28;20026;-69
2022/12/05 03:07:05;;;;;;;74.57;35.78;;;5.10;99.90;;;;;;5031253;28;20037;-69
2022/12/05 03:09:42;;;;;;;69.20;33.40;;;5.10;99.90;;;;;;5026067;28;20018;-69
2022/12/05 03:12:17;;;;;;;77.93;37.45;;;5.10;99.90;;;;;;5030435;28;20109;-69
2022/12/05 03:14:54;;;;;;;72.88;36.40;;;5.00;99.90;;;;;;5031818;28;20034;-69
2022/12/05 03:17:25;;;;;;;79.97;37.25;;;5.00;99.90;;;;;;5027205;28;20030;-69
2022/12/05 03:20:13;;;;;;;67.18;34.78;;;5.00;99.90;;;;;;5027642;28;20087;-67
2022/12/05 03:23:00;;;;;;;67.88;32.58;;;5.00;99.90;;;;;;5030703;28;20033;-68
2022/12/05 03:25:40;;;;;;;65.65;30.73;;;5.00;99.90;;;;;;5031367;28;20453;-68
2022/12/05 03:28:22;;;;;;;62.05;32.17;;;5.10;99.90;;;;;;5031032;28;20034;-68
2022/12/05 03:30:52;;;;;;;62.42;31.48;;;5.10;99.90;;;;;;5031528;28;20073;-68
2022/12/05 03:33:24;;;;;;;63.80;32.40;;;5.10;99.90;;;;;;5029819;28;20040;-69
2022/12/05 03:36:08;;;;;;;64.47;32.65;;;5.10;99.90;;;;;;5031124;28;20029;-69
2022/12/05 03:38:46;;;;;;;61.92;30.20;;;5.10;99.90;;;;;;5031395;28;20032;-69
2022/12/05 03:41:39;;;;;;;63.33;32.58;;;5.10;99.90;;;;;;5030998;28;20038;-69
2022/12/05 03:44:17;;;;;;;63.67;30.27;;;5.10;99.90;;;;;;5030452;28;20033;-69
2022/12/05 03:46:54;;;;;;;64.97;31.30;;;5.10;99.90;;;;;;5011869;28;20511;-69
2022/12/05 03:49:33;;;;;;;61.50;30.77;;;5.10;99.90;;;;;;5029261;28;20033;-69
2022/12/05 03:52:17;;;;;;;62.33;30.58;;;5.10;99.90;;;;;;5031358;28;20038;-69
2022/12/05 03:54:51;;;;;;;58.37;31.60;;;5.10;99.90;;;;;;5017174;28;20045;-69
2022/12/05 03:57:35;;;;;;;65.45;32.08;;;5.10;99.90;;;;;;5030079;28;20040;-69
2022/12/05 04:00:09;;;;;;;54.77;31.57;;;5.10;99.90;;;;;;5030750;28;20045;-69
2022/12/05 04:03:10;;;;;;;66.05;32.03;;;5.10;99.90;;;;;;5030846;28;20277;-69
2022/12/05 04:05:42;;;;;;;57.15;29.55;;;5.10;99.90;;;;;;5029139;28;20041;-69
2022/12/05 04:08:28;;;;;;;60.03;31.30;;;5.10;99.90;;;;;;5019052;28;20038;-69
2022/12/05 04:11:00;;;;;;;58.20;30.52;;;5.10;99.90;;;;;;5030248;28;20029;-69
2022/12/05 04:13:57;;;;;;;61.90;31.42;;;5.10;99.90;;;;;;5027068;28;20029;-69
2022/12/05 04:19:27;;;;;;;58.38;29.45;;;5.10;99.90;;;;;;5030157;28;20049;-69
2022/12/05 04:21:55;;;;;;;57.78;27.63;;;5.10;99.90;;;;;;5025191;28;20029;-69
2022/12/05 04:27:40;;;;;;;57.78;28.90;;;5.10;99.90;;;;;;5034481;28;20048;-69
2022/12/05 04:30:16;;;;;;;56.08;30.63;;;5.10;99.90;;;;;;4993522;28;20030;-69
2022/12/05 04:33:01;;;;;;;65.53;32.78;;;5.10;99.90;;;;;;5033910;28;20087;-68
2022/12/05 04:35:33;;;;;;;56.92;27.80;;;5.20;99.90;;;;;;5033745;28;20033;-68
2022/12/05 04:38:14;;;;;;;62.45;29.98;;;5.20;99.90;;;;;;5025098;28;20048;-68
2022/12/05 04:40:47;;;;;;;58.03;28.95;;;5.10;99.90;;;;;;5034473;28;20116;-68
2022/12/05 04:43:15;;;;;;;62.63;31.08;;;5.10;99.90;;;;;;5032646;28;20025;-68
2022/12/05 04:45:42;;;;;;;53.47;28.70;;;5.20;99.90;;;;;;5035235;28;20484;-68
2022/12/05 04:48:15;;;;;;;54.25;28.77;;;5.20;99.90;;;;;;5034205;28;20740;-68
2022/12/05 04:50:44;;;;;;;52.63;26.77;;;5.20;99.90;;;;;;5034248;28;20025;-69
2022/12/05 04:53:12;;;;;;;54.70;27.48;;;5.20;99.90;;;;;;5032551;28;20033;-69
2022/12/05 04:55:41;;;;;;;49.25;26.00;;;5.20;99.90;;;;;;5033646;28;20238;-68
2022/12/05 04:58:08;;;;;;;51.05;26.80;;;5.20;99.90;;;;;;5033144;28;20380;-69
2022/12/05 05:00:42;;;;;;;56.65;28.40;;;5.20;99.90;;;;;;5033445;28;20045;-69
2022/12/05 05:03:15;;;;;;;51.67;26.38;;;5.20;99.90;;;;;;5032108;28;20025;-68
2022/12/05 05:05:46;;;;;;;45.00;24.65;;;5.20;99.90;;;;;;5048538;28;20048;-69
2022/12/05 05:08:18;;;;;;;48.67;25.05;;;5.20;99.90;;;;;;5033139;28;20071;-69
2022/12/05 05:10:54;;;;;;;48.17;26.15;;;5.30;99.90;;;;;;5032771;28;20025;-69
2022/12/05 05:13:20;;;;;;;45.33;26.48;;;5.30;99.90;;;;;;5028554;28;20026;-69
2022/12/05 05:15:46;;;;;;;51.03;24.90;;;5.30;99.90;;;;;;5027810;28;20033;-69
2022/12/05 05:18:11;;;;;;;49.35;25.13;;;5.30;99.90;;;;;;5033284;28;20096;-68
2022/12/05 05:20:37;;;;;;;44.88;24.60;;;5.30;99.90;;;;;;5033984;28;20061;-69
2022/12/05 05:23:03;;;;;;;43.58;24.58;;;5.30;99.90;;;;;;5033063;28;20033;-68
2022/12/05 05:25:28;;;;;;;44.05;23.80;;;5.30;99.90;;;;;;5032331;28;20120;-69
2022/12/05 05:27:56;;;;;;;43.25;22.90;;;5.30;99.90;;;;;;5033336;28;20029;-68
2022/12/05 05:30:23;;;;;;;48.05;23.85;;;5.30;99.90;;;;;;5033734;28;20021;-69
2022/12/05 05:32:49;;;;;;;45.00;24.70;;;5.30;99.90;;;;;;5048326;28;20029;-69
2022/12/05 05:35:19;;;;;;;40.67;22.42;;;5.30;99.90;;;;;;5033484;28;20036;-69
2022/12/05 05:37:45;;;;;;;39.38;22.70;;;5.30;99.90;;;;;;5047501;28;20036;-69
2022/12/05 05:40:12;;;;;;;37.78;22.63;;;5.40;99.90;;;;;;5032322;28;20033;-69
2022/12/05 05:42:45;;;;;;;36.97;21.45;;;5.30;99.90;;;;;;5032245;28;20112;-69
2022/12/05 05:45:12;;;;;;;41.33;22.23;;;5.40;99.90;;;;;;5022620;28;20030;-68
2022/12/05 05:47:38;;;;;;;36.80;20.95;;;5.40;99.90;;;;;;5031144;28;20061;-69
2022/12/05 05:50:05;;;;;;;40.15;21.75;;;5.30;99.90;;;;;;5031739;28;20053;-69
2022/12/05 05:52:35;;;;;;;38.70;21.10;;;5.30;99.90;;;;;;5021818;28;20026;-70
2022/12/05 05:55:02;;;;;;;35.15;20.33;;;5.30;99.90;;;;;;5016164;28;20024;-70
2022/12/05 05:57:29;;;;;;;34.05;19.38;;;5.30;99.90;;;;;;5033169;28;20029;-69
2022/12/05 05:59:56;;;;;;;34.45;18.08;;;5.30;99.90;;;;;;5017997;28;20523;-69
2022/12/05 06:02:22;;;;;;;33.65;20.30;;;5.40;99.90;;;;;;5017754;28;20029;-69
2022/12/05 06:04:47;;;;;;;32.55;20.05;;;5.40;99.90;;;;;;5032507;28;20558;-69
2022/12/05 06:07:13;;;;;;;33.60;21.42;;;5.40;99.90;;;;;;5032724;28;20029;-69
2022/12/05 06:09:39;;;;;;;33.35;20.48;;;5.40;99.90;;;;;;5032424;28;20409;-69
2022/12/05 06:12:05;;;;;;;33.50;19.75;;;5.40;99.90;;;;;;5028150;28;20033;-70
2022/12/05 06:14:31;;;;;;;31.17;19.45;;;5.40;99.90;;;;;;5032226;28;20025;-69
2022/12/05 06:16:58;;;;;;;32.40;19.83;;;5.40;99.90;;;;;;5031182;28;20027;-68
2022/12/05 06:19:23;;;;;;;36.55;20.30;;;5.40;99.90;;;;;;5046410;28;20094;-68
2022/12/05 06:21:50;;;;;;;31.60;20.02;;;5.40;99.90;;;;;;5030394;28;20034;-68
2022/12/05 06:24:16;;;;;;;33.45;20.42;;;5.40;99.90;;;;;;5030785;28;20032;-69
2022/12/05 06:26:42;;;;;;;31.33;19.63;;;5.40;99.90;;;;;;5032309;28;20037;-68
2022/12/05 06:29:09;;;;;;;33.28;19.95;;;5.40;99.90;;;;;;5030626;28;20086;-68
2022/12/05 06:31:34;;;;;;;31.67;18.40;;;5.40;99.90;;;;;;5031186;28;20495;-68
2022/12/05 06:34:02;;;;;;;31.83;18.67;;;5.40;99.90;;;;;;5031591;28;20029;-68
2022/12/05 06:36:28;;;;;;;30.65;18.83;;;5.40;99.90;;;;;;5031403;28;20388;-68
2022/12/05 06:38:56;;;;;;;35.15;20.02;;;5.40;99.90;;;;;;5027453;28;20025;-68
2022/12/05 06:41:23;;;;;;;32.15;19.55;;;5.40;99.90;;;;;;5029857;28;20026;-68
2022/12/05 06:43:54;;;;;;;31.45;19.83;;;5.40;99.90;;;;;;5031563;28;20033;-67
2022/12/05 06:46:21;;;;;;;31.52;17.48;;;5.40;99.90;;;;;;5031347;28;20095;-67
2022/12/05 06:48:47;;;;;;;30.98;17.95;;;5.40;99.90;;;;;;5031362;28;20032;-68
2022/12/05 06:51:15;;;;;;;28.23;17.27;;;5.40;99.90;;;;;;5032228;28;20030;-68
2022/12/05 06:53:42;;;;;;;33.15;18.73;;;5.40;99.90;;;;;;5031717;28;20492;-66
2022/12/05 06:56:14;;;;;;;32.50;18.08;;;5.40;99.90;;;;;;5030807;28;20029;-68
2022/12/05 06:58:45;;;;;;;30.73;17.85;;;5.40;99.90;;;;;;5032123;28;20017;-68
2022/12/05 07:03:58;;;;;;;29.73;17.92;;;5.50;99.90;;;;;;5032541;28;20028;-68
2022/12/05 07:06:24;;;;;;;33.00;18.83;;;5.40;99.90;;;;;;5030700;28;20042;-69
2022/12/05 07:08:50;;;;;;;29.65;18.83;;;5.40;99.90;;;;;;5031073;28;20362;-69
2022/12/05 07:11:16;;;;;;;34.83;19.77;;;5.50;99.90;;;;;;5030907;28;20067;-68
2022/12/05 07:13:42;;;;;;;31.10;18.45;;;5.50;99.90;;;;;;5031497;28;20026;-69
2022/12/05 07:16:08;;;;;;;32.78;19.05;;;5.50;99.90;;;;;;5031119;28;20033;-69
2022/12/05 07:18:35;;;;;;;26.48;16.65;;;5.50;99.90;;;;;;5029220;28;20033;-68
2022/12/05 07:21:06;;;;;;;30.85;18.52;;;5.50;99.90;;;;;;5031737;28;20033;-68
2022/12/05 07:23:31;;;;;;;26.15;16.15;;;5.50;99.90;;;;;;5028980;28;20444;-68
2022/12/05 07:25:57;;;;;;;31.20;17.02;;;5.50;99.90;;;;;;5027304;28;20125;-68
2022/12/05 07:28:24;;;;;;;30.85;17.95;;;5.50;99.90;;;;;;5030869;28;20108;-68
2022/12/05 07:30:59;;;;;;;31.45;18.48;;;5.50;99.90;;;;;;5030951;28;20029;-69
2022/12/05 07:33:25;;;;;;;29.13;17.17;;;5.50;99.90;;;;;;5030470;28;20495;-69
2022/12/05 07:35:52;;;;;;;30.20;18.02;;;5.50;99.90;;;;;;5031476;28;20037;-69
2022/12/05 07:38:17;;;;;;;31.42;17.70;;;5.50;99.90;;;;;;5024068;28;20014;-68
2022/12/05 07:40:43;;;;;;;28.98;16.45;;;5.50;99.90;;;;;;5027993;28;20088;-69
2022/12/05 07:43:09;;;;;;;26.25;16.98;;;5.50;99.90;;;;;;5027815;28;20037;-69
2022/12/05 07:45:34;;;;;;;25.65;15.45;;;5.50;99.90;;;;;;5021097;28;20037;-68
2022/12/05 07:48:00;;;;;;;29.42;17.30;;;5.50;99.90;;;;;;5028931;28;20432;-67
2022/12/05 07:50:25;;;;;;;27.50;17.00;;;5.50;99.90;;;;;;5031728;28;20067;-70
2022/12/05 07:52:51;;;;;;;27.75;18.08;;;5.50;99.90;;;;;;5029976;28;20380;-69
2022/12/05 07:55:19;;;;;;;26.88;15.90;;;5.50;99.90;;;;;;5030676;28;20074;-69
2022/12/05 07:57:46;;;;;;;28.38;15.93;;;5.60;99.90;;;;;;5030672;28;20059;-69
2022/12/05 08:00:13;;;;;;;29.48;16.80;;;5.50;99.90;;;;;;5031871;28;20046;-68
2022/12/05 08:02:41;;;;;;;26.85;16.95;;;5.60;99.90;;;;;;5035102;28;20084;-69
2022/12/05 08:05:07;;;;;;;27.27;16.88;;;5.60;99.90;;;;;;5045736;28;20029;-70
2022/12/05 08:07:33;;;;;;;26.88;15.95;;;5.60;99.90;;;;;;5032488;28;20036;-70
2022/12/05 08:10:00;;;;;;;26.50;15.50;;;5.60;99.90;;;;;;5034911;28;20041;-69
2022/12/05 08:12:25;;;;;;;27.20;16.10;;;5.60;99.90;;;;;;5032247;28;20357;-69
2022/12/05 08:14:52;;;;;;;26.88;15.50;;;5.60;99.90;;;;;;5035195;28;20028;-69
2022/12/05 08:17:18;;;;;;;31.13;17.00;;;5.60;99.90;;;;;;5032025;28;20068;-69
2022/12/05 08:19:44;;;;;;;27.30;16.50;;;5.60;99.90;;;;;;5033531;28;20048;-69
2022/12/05 08:22:09;;;;;;;28.38;16.52;;;5.60;99.90;;;;;;5026811;28;20032;-69
2022/12/05 08:24:35;;;;;;;27.13;16.05;;;5.60;99.90;;;;;;5030713;28;20029;-69
2022/12/05 08:27:03;;;;;;;28.15;15.85;;;5.60;99.90;;;;;;5022819;28;20029;-69
2022/12/05 08:29:29;;;;;;;31.58;16.38;;;5.60;99.90;;;;;;5031531;28;20028;-69
2022/12/05 08:31:55;;;;;;;29.15;17.08;;;5.60;99.90;;;;;;5020620;28;20037;-69
2022/12/05 08:34:21;;;;;;;28.67;16.45;;;5.50;99.90;;;;;;5034316;28;20026;-69
2022/12/05 08:36:49;;;;;;;26.35;15.93;;;5.50;99.90;;;;;;5036134;28;20495;-68
2022/12/05 08:39:18;;;;;;;28.08;15.95;;;5.50;99.90;;;;;;5026383;28;20033;-69
2022/12/05 08:41:46;;;;;;;29.20;17.20;;;5.50;99.90;;;;;;5032454;28;20042;-68
2022/12/05 08:44:15;;;;;;;25.13;17.00;;;5.60;99.90;;;;;;5032667;28;20053;-68
2022/12/05 08:46:41;;;;;;;28.42;17.70;;;5.60;99.90;;;;;;5026673;28;20041;-68
2022/12/05 08:49:07;;;;;;;26.80;17.48;;;5.50;99.90;;;;;;5029438;28;20109;-68
2022/12/05 08:51:33;;;;;;;29.55;17.30;;;5.60;99.90;;;;;;5031350;28;20041;-69
2022/12/05 08:54:04;;;;;;;29.02;17.08;;;5.60;99.90;;;;;;5024613;28;20026;-68
2022/12/05 08:56:31;;;;;;;29.25;17.20;;;5.60;99.90;;;;;;5029222;28;20372;-68
2022/12/05 08:58:58;;;;;;;28.42;16.48;;;5.60;99.90;;;;;;5044834;28;20037;-68
2022/12/05 09:01:30;;;;;;;29.67;16.70;;;5.60;99.90;;;;;;5028436;28;20480;-68
2022/12/05 09:03:59;;;;;;;28.98;17.33;;;5.60;99.90;;;;;;5028292;28;20021;-69
2022/12/05 09:06:26;;;;;;;24.58;15.57;;;5.60;99.90;;;;;;5023834;28;20444;-69
2022/12/05 09:08:56;;;;;;;28.65;16.95;;;5.60;99.90;;;;;;5031654;28;20032;-70
2022/12/05 09:11:25;;;;;;;29.30;17.77;;;5.70;99.90;;;;;;5027115;28;20507;-71
2022/12/05 09:13:52;;;;;;;25.85;16.10;;;5.70;99.90;;;;;;5015833;28;20061;-70
2022/12/05 09:16:30;;;;;;;26.33;16.42;;;5.90;99.90;;;;;;5032062;28;20044;-67
2022/12/05 09:18:57;;;;;;;25.58;15.63;;;5.90;99.90;;;;;;5032972;28;20034;-67
2022/12/05 09:21:26;;;;;;;23.85;15.30;;;5.90;99.90;;;;;;5033207;28;20488;-68
2022/12/05 09:23:52;;;;;;;24.48;15.57;;;5.90;99.90;;;;;;5028799;28;20029;-68
2022/12/05 09:26:22;;;;;;;25.92;16.52;;;5.80;99.90;;;;;;5033257;28;20045;-68
2022/12/05 09:28:48;;;;;;;21.13;13.98;;;5.90;99.90;;;;;;5034020;28;20029;-68
2022/12/05 09:31:16;;;;;;;22.08;13.35;;;5.80;99.90;;;;;;5030584;28;20041;-68
2022/12/05 09:33:43;;;;;;;22.20;14.52;;;5.80;99.90;;;;;;5037279;28;20021;-67
2022/12/05 09:36:19;;;;;;;21.13;14.07;;;5.80;99.90;;;;;;5030054;28;20071;-67
2022/12/05 09:38:45;;;;;;;23.67;14.68;;;5.90;99.90;;;;;;5032821;28;20032;-66
2022/12/05 09:44:34;;;;;;;26.45;15.48;;;5.90;99.90;;;;;;5031612;28;20037;-66
2022/12/05 09:47:18;;;;;;;21.70;14.38;;;5.90;99.90;;;;;;5029757;28;20038;-66
2022/12/05 09:50:00;;;;;;;22.23;13.30;;;5.90;99.90;;;;;;5031256;28;20083;-65
2022/12/05 09:52:34;;;;;;;22.15;14.30;;;5.90;99.90;;;;;;5032081;28;20048;-68
2022/12/05 09:55:16;;;;;;;24.17;14.02;;;5.90;99.90;;;;;;5032122;28;20034;-66
2022/12/05 09:57:51;;;;;;;24.70;15.00;;;5.90;99.90;;;;;;5046997;28;20121;-66
2022/12/05 10:00:17;;;;;;;23.13;15.18;;;6.00;99.90;;;;;;5030508;28;20053;-67
2022/12/05 10:02:49;;;;;;;26.25;16.15;;;6.00;99.90;;;;;;5028339;28;20112;-67
2022/12/05 10:05:23;;;;;;;22.83;15.10;;;6.00;99.90;;;;;;5031487;28;20033;-67
2022/12/05 10:07:55;;;;;;;24.33;15.20;;;5.90;99.90;;;;;;5028484;28;20032;-67
2022/12/05 10:10:27;;;;;;;22.00;12.98;;;5.90;99.90;;;;;;5030008;28;20042;-67
2022/12/05 10:13:07;;;;;;;22.73;14.93;;;5.90;99.90;;;;;;5026931;28;20120;-67
2022/12/05 10:15:38;;;;;;;22.55;14.68;;;6.00;99.90;;;;;;5027870;28;20037;-67
2022/12/05 10:18:19;;;;;;;20.33;13.85;;;6.00;99.90;;;;;;5031103;28;20025;-65
2022/12/05 10:20:47;;;;;;;22.60;14.02;;;6.00;99.90;;;;;;5028555;28;20040;-66
2022/12/05 10:23:29;;;;;;;22.02;13.65;;;6.00;99.90;;;;;;5031042;28;20033;-66
2022/12/05 10:26:04;;;;;;;23.60;13.75;;;6.00;99.90;;;;;;5031843;28;20041;-67
2022/12/05 10:28:35;;;;;;;24.07;13.93;;;6.10;99.90;;;;;;5026189;28;20183;-66
2022/12/05 10:31:06;;;;;;;23.55;13.65;;;6.10;99.90;;;;;;5029888;28;20347;-67
2022/12/05 10:33:38;;;;;;;19.83;12.50;;;6.10;99.90;;;;;;5031978;28;20032;-67
2022/12/05 10:36:13;;;;;;;22.65;15.10;;;6.10;99.90;;;;;;5028927;28;20041;-67
2022/12/05 10:38:42;;;;;;;22.60;14.02;;;6.10;99.90;;;;;;5029216;28;20117;-66
2022/12/05 10:41:12;;;;;;;23.35;14.98;;;6.10;99.90;;;;;;5029773;28;20083;-68
2022/12/05 10:43:41;;;;;;;20.92;13.98;;;6.10;99.90;;;;;;5027078;28;20033;-67
2022/12/05 10:46:09;;;;;;;20.38;14.32;;;6.10;99.90;;;;;;5031334;28;20092;-66
2022/12/05 10:48:37;;;;;;;21.50;12.75;;;6.10;99.90;;;;;;5031321;28;20079;-66
2022/12/05 10:51:05;;;;;;;22.45;14.52;;;6.20;99.90;;;;;;5026535;28;20061;-67
2022/12/05 10:53:37;;;;;;;22.25;14.70;;;6.20;99.90;;;;;;5025551;28;20018;-67
2022/12/05 10:56:22;;;;;;;19.42;12.77;;;6.30;99.90;;;;;;5024735;28;20105;-65
2022/12/05 10:58:56;;;;;;;22.42;14.52;;;6.30;99.90;;;;;;5030575;28;20080;-65
2022/12/05 11:01:24;;;;;;;23.45;13.77;;;6.30;99.90;;;;;;5044776;28;20037;-66
2022/12/05 11:04:16;;;;;;;22.55;13.60;;;6.30;99.90;;;;;;5016137;28;20040;-66
2022/12/05 11:06:51;;;;;;;20.20;12.75;;;6.30;99.90;;;;;;5027566;28;20045;-66
2022/12/05 11:09:20;;;;;;;21.83;15.05;;;6.30;99.90;;;;;;5032238;28;20500;-67
2022/12/05 11:12:18;;;;;;;22.55;14.48;;;6.40;99.90;;;;;;5030124;28;20037;-66
2022/12/05 11:14:54;;;;;;;23.45;13.43;;;6.40;99.90;;;;;;5019007;28;20044;-67
2022/12/05 11:17:31;;;;;;;21.35;13.90;;;6.40;99.90;;;;;;5020243;28;20036;-66
2022/12/05 11:19:56;;;;;;;23.17;13.98;;;6.40;99.90;;;;;;5024566;28;20408;-67
2022/12/05 11:22:34;;;;;;;25.38;15.52;;;6.50;99.90;;;;;;5026372;28;20034;-67
2022/12/05 11:25:00;;;;;;;21.70;14.50;;;6.50;99.90;;;;;;5026987;28;20029;-66
2022/12/05 11:27:31;;;;;;;24.25;15.88;;;6.50;99.90;;;;;;5042636;28;20040;-66
2022/12/05 11:30:00;;;;;;;24.40;15.38;;;6.50;99.90;;;;;;5016061;28;20380;-66
2022/12/05 11:32:29;;;;;;;21.95;14.13;;;6.50;99.90;;;;;;5029853;28;20044;-66
2022/12/05 11:34:55;;;;;;;23.70;14.82;;;6.50;99.90;;;;;;5028163;28;20025;-66
2022/12/05 11:37:27;;;;;;;26.42;16.80;;;6.60;99.90;;;;;;5026450;28;20465;-66
2022/12/05 11:39:53;;;;;;;22.35;14.60;;;6.60;99.90;;;;;;5029278;28;20026;-66
2022/12/05 11:42:36;;;;;;;27.88;16.10;;;6.60;99.90;;;;;;5027413;28;20025;-65
2022/12/05 11:45:10;;;;;;;23.70;15.45;;;6.60;99.90;;;;;;5028294;28;20037;-66
2022/12/05 11:47:53;;;;;;;22.58;14.43;;;6.70;99.90;;;;;;5023375;28;20059;-66
2022/12/05 11:50:57;;;;;;;25.17;14.35;;;6.70;99.90;;;;;;5026441;28;20480;-66
2022/12/05 11:53:34;;;;;;;28.63;16.50;;;6.70;99.90;;;;;;5028677;28;20029;-66
2022/12/05 11:56:13;;;;;;;26.38;15.70;;;6.70;99.90;;;;;;5019281;28;20029;-66
2022/12/05 11:59:01;;;;;;;22.73;15.07;;;6.70;99.90;;;;;;5031183;28;20021;-67
2022/12/05 12:01:58;;;;;;;27.67;17.13;;;6.70;99.90;;;;;;5028144;28;20053;-67
2022/12/05 12:04:33;;;;;;;24.00;15.18;;;6.60;99.90;;;;;;5015703;28;20116;-67
2022/12/05 12:07:19;;;;;;;24.63;16.45;;;6.70;99.90;;;;;;5017834;28;20041;-67
2022/12/05 12:09:52;;;;;;;;;;;6.70;99.90;;;;;;5030691;28;20042;-67
2022/12/05 12:12:42;;;;;;;23.70;15.45;;;6.70;99.90;;;;;;5026481;28;19921;-67
2022/12/05 12:15:29;;;;;;;23.20;16.48;;;6.60;99.90;;;;;;4984061;28;20133;-67
2022/12/05 12:18:19;;;;;;;27.85;16.80;;;6.70;99.90;;;;;;5043459;28;20033;-67
2022/12/05 12:21:06;;;;;;;22.92;15.38;;;6.70;99.90;;;;;;5029168;28;20045;-67
2022/12/05 12:23:47;;;;;;;25.45;17.92;;;6.70;99.90;;;;;;5021903;28;20029;-67
2022/12/05 12:26:21;;;;;;;25.52;16.17;;;6.70;99.90;;;;;;5020200;28;20127;-68
2022/12/05 12:29:22;;;;;;;27.83;16.65;;;6.70;99.90;;;;;;5026567;28;20032;-67
2022/12/05 12:32:15;;;;;;;25.80;17.38;;;6.70;99.90;;;;;;5027423;28;20110;-69
2022/12/05 12:34:59;;;;;;;29.25;16.88;;;6.70;99.90;;;;;;5032676;28;20100;-65
2022/12/05 12:37:59;;;;;;;26.83;17.13;;;6.70;99.90;;;;;;5026085;28;20025;-65
2022/12/05 12:40:56;;;;;;;25.33;16.58;;;6.70;99.90;;;;;;5026877;28;20124;-64
2022/12/05 12:43:31;;;;;;;23.17;14.85;;;6.70;99.90;;;;;;5030274;28;20380;-65
2022/12/05 12:46:40;;;;;;;30.40;19.35;;;6.70;99.90;;;;;;5031522;28;20529;-65
2022/12/05 12:49:21;;;;;;;26.85;16.30;;;6.70;99.90;;;;;;5034050;28;20043;-65
2022/12/05 12:51:53;;;;;;;27.98;17.73;;;6.70;99.90;;;;;;5033747;28;20139;-67
2022/12/05 12:54:41;;;;;;;32.42;18.33;;;6.70;99.90;;;;;;5034120;28;20424;-66
2022/12/05 12:57:28;;;;;;;30.90;17.50;;;6.70;99.90;;;;;;5033631;28;20095;-66
2022/12/05 13:00:28;;;;;;;28.88;16.80;;;6.70;99.90;;;;;;5029018;28;20060;-65
2022/12/05 13:03:26;;;;;;;30.30;19.58;;;6.70;99.90;;;;;;5033489;28;20053;-65
2022/12/05 13:06:04;;;;;;;27.38;19.02;;;6.80;99.90;;;;;;5005843;28;20459;-65
2022/12/05 13:08:39;;;;;;;33.55;20.10;;;6.80;99.90;;;;;;5020610;28;20028;-66
2022/12/05 13:11:09;;;;;;;31.45;19.25;;;6.80;99.90;;;;;;5034103;28;20392;-65
2022/12/05 13:13:41;;;;;;;32.70;19.67;;;6.80;99.90;;;;;;5032652;28;20072;-65
2022/12/05 13:16:10;;;;;;;31.05;19.63;;;6.80;99.90;;;;;;5030020;28;20356;-65